createdAt,value
2019-04-20T00:01:12.649Z,30.53
2019-04-20T00:03:43.249Z,31.83
2019-04-20T00:06:15.210Z,37.60
2019-04-20T00:08:47.704Z,36.80
2019-04-20T00:11:27.512Z,33.97
2019-04-20T00:14:01.259Z,32.27
2019-04-20T00:16:27.231Z,34.87
2019-04-20T00:19:05.027Z,32.93
2019-04-20T00:21:49.560Z,31.27
2019-04-20T00:24:23.373Z,31.23
2019-04-20T00:29:47.984Z,25.33
2019-04-20T00:32:12.548Z,25.47
2019-04-20T00:34:39.875Z,27.97
2019-04-20T00:37:08.819Z,28.90
2019-04-20T00:39:40.583Z,27.37
2019-04-20T00:42:15.862Z,25.43
2019-04-20T00:44:49.639Z,26.33
2019-04-20T00:47:30.443Z,27.07
2019-04-20T00:50:05.531Z,28.03
2019-04-20T00:52:47.078Z,27.20
2019-04-20T00:55:04.119Z,26.97
2019-04-20T00:57:46.682Z,28.20
2019-04-20T01:00:26.873Z,28.07
2019-04-20T01:02:53.270Z,30.00
2019-04-20T01:05:27.671Z,29.70
2019-04-20T01:08:08.334Z,29.23
2019-04-20T01:10:44.968Z,25.70
2019-04-20T01:13:15.584Z,24.20
2019-04-20T01:15:51.588Z,24.13
2019-04-20T01:18:36.945Z,25.23
2019-04-20T01:21:16.504Z,24.23
2019-04-20T01:23:50.702Z,25.07
2019-04-20T01:26:19.704Z,24.53
2019-04-20T01:29:02.889Z,27.20
2019-04-20T01:31:35.529Z,25.80
2019-04-20T01:34:06.150Z,26.87
2019-04-20T01:36:49.078Z,26.23
2019-04-20T01:39:13.588Z,26.20
2019-04-20T01:41:35.140Z,23.83
2019-04-20T01:46:46.696Z,23.43
2019-04-20T01:49:18.260Z,23.47
2019-04-20T01:51:52.516Z,23.47
2019-04-20T01:54:33.933Z,22.07
2019-04-20T01:57:04.140Z,23.50
2019-04-20T01:59:35.975Z,23.33
2019-04-20T02:02:07.003Z,23.00
2019-04-20T02:04:41.989Z,21.83
2019-04-20T02:07:12.050Z,21.90
2019-04-20T02:09:51.377Z,23.40
2019-04-20T02:12:23.616Z,21.97
2019-04-20T02:14:54.076Z,21.40
2019-04-20T02:17:30.057Z,20.83
2019-04-20T02:20:14.132Z,19.73
2019-04-20T02:22:44.165Z,20.57
2019-04-20T02:24:59.546Z,21.13
2019-04-20T02:27:40.883Z,18.97
2019-04-20T02:30:41.114Z,21.40
2019-04-20T02:39:13.713Z,22.53
2019-04-20T02:41:23.605Z,23.83
2019-04-20T02:43:58.038Z,24.07
2019-04-20T02:46:22.507Z,27.27
2019-04-20T02:49:06.166Z,23.63
2019-04-20T02:51:28.063Z,22.80
2019-04-20T02:54:14.092Z,21.30
2019-04-20T02:59:29.638Z,19.63
2019-04-20T03:01:45.494Z,20.10
2019-04-20T03:04:04.322Z,19.13
2019-04-20T03:06:48.383Z,18.13
2019-04-20T03:09:32.828Z,19.43
2019-04-20T03:12:08.182Z,19.20
2019-04-20T03:14:33.607Z,19.93
2019-04-20T03:17:18.205Z,17.93
2019-04-20T03:19:41.165Z,18.50
2019-04-20T03:22:24.584Z,19.03
2019-04-20T03:24:54.008Z,18.60
2019-04-20T03:27:20.926Z,18.80
2019-04-20T03:30:21.756Z,17.17
2019-04-20T03:33:02.865Z,16.60
2019-04-20T03:35:20.716Z,16.53
2019-04-20T03:37:56.818Z,16.27
2019-04-20T03:40:19.327Z,17.90
2019-04-20T03:42:37.320Z,19.30
2019-04-20T03:45:14.978Z,19.40
2019-04-20T03:47:52.853Z,19.13
2019-04-20T03:50:35.568Z,18.83
2019-04-20T03:53:13.953Z,18.00
2019-04-20T03:55:49.179Z,19.63
2019-04-20T03:58:28.533Z,21.77
2019-04-20T04:03:53.406Z,19.77
2019-04-20T04:06:19.838Z,18.60
2019-04-20T04:08:55.026Z,19.50
2019-04-20T04:11:32.659Z,18.97
2019-04-20T04:13:48.329Z,20.87
2019-04-20T04:16:22.698Z,17.73
2019-04-20T04:19:07.836Z,17.60
2019-04-20T04:21:40.857Z,18.80
2019-04-20T04:24:14.352Z,20.57
2019-04-20T04:26:50.045Z,20.60
2019-04-20T04:29:30.159Z,23.50
2019-04-20T04:32:09.301Z,26.43
2019-04-20T04:34:30.724Z,24.97
2019-04-20T04:37:03.248Z,25.97
2019-04-20T04:39:37.005Z,28.60
2019-04-20T04:42:16.948Z,34.27
2019-04-20T04:44:50.571Z,30.70
2019-04-20T04:47:16.869Z,28.80
2019-04-20T04:49:59.213Z,29.27
2019-04-20T04:52:34.168Z,27.20
2019-04-20T04:55:09.545Z,26.07
2019-04-20T04:57:30.485Z,26.07
2019-04-20T05:00:01.771Z,27.73
2019-04-20T05:02:40.593Z,27.63
2019-04-20T05:05:39.216Z,29.80
2019-04-20T05:07:56.524Z,53.07
2019-04-20T05:10:20.804Z,32.63
2019-04-20T05:12:53.234Z,25.93
2019-04-20T05:15:37.348Z,22.87
2019-04-20T05:18:18.383Z,25.03
2019-04-20T05:20:54.567Z,27.27
2019-04-20T05:23:29.538Z,27.33
2019-04-20T05:26:13.786Z,26.03
2019-04-20T05:28:37.107Z,30.60
2019-04-20T05:31:04.877Z,25.90
2019-04-20T05:36:45.049Z,28.83
2019-04-20T05:39:25.207Z,26.00
2019-04-20T05:41:51.381Z,24.10
2019-04-20T05:44:20.946Z,25.10
2019-04-20T05:47:01.087Z,24.53
2019-04-20T05:49:46.817Z,23.73
2019-04-20T05:52:18.752Z,24.50
2019-04-20T05:54:46.066Z,25.53
2019-04-20T05:57:21.085Z,24.30
2019-04-20T05:59:56.034Z,27.63
2019-04-20T06:02:29.439Z,26.00
2019-04-20T06:07:29.626Z,24.20
2019-04-20T06:10:05.986Z,22.67
2019-04-20T06:12:40.345Z,23.73
2019-04-20T06:15:15.407Z,22.57
2019-04-20T06:18:05.121Z,21.03
2019-04-20T06:20:47.844Z,22.10
2019-04-20T06:23:38.711Z,23.77
2019-04-20T06:26:35.216Z,23.37
2019-04-20T06:28:46.521Z,23.33
2019-04-20T06:31:26.600Z,23.93
2019-04-20T06:36:47.462Z,22.93
2019-04-20T06:44:30.296Z,22.80
2019-04-20T06:47:03.655Z,24.03
2019-04-20T06:49:34.453Z,22.87
2019-04-20T06:52:18.648Z,25.10
2019-04-20T06:54:53.755Z,22.33
2019-04-20T06:57:31.049Z,23.70
2019-04-20T07:00:07.424Z,21.17
2019-04-20T07:02:42.844Z,21.03
2019-04-20T07:05:11.869Z,19.73
2019-04-20T07:07:43.417Z,19.10
2019-04-20T07:12:46.726Z,20.27
2019-04-20T07:15:22.724Z,20.33
2019-04-20T07:18:01.713Z,20.07
2019-04-20T07:20:54.092Z,20.20
2019-04-20T07:26:12.538Z,19.67
2019-04-20T07:28:48.583Z,20.53
2019-04-20T07:31:17.206Z,21.43
2019-04-20T07:33:46.359Z,20.23
2019-04-20T07:36:24.481Z,21.33
2019-04-20T07:38:57.955Z,20.00
2019-04-20T07:41:42.011Z,20.53
2019-04-20T07:44:29.988Z,23.33
2019-04-20T07:46:47.170Z,20.10
2019-04-20T07:49:12.931Z,20.73
2019-04-20T07:51:34.991Z,19.47
2019-04-20T07:54:33.351Z,20.57
2019-04-20T07:56:53.887Z,20.70
2019-04-20T07:59:17.868Z,19.30
2019-04-20T08:02:19.203Z,20.47
2019-04-20T08:04:47.122Z,19.47
2019-04-20T08:07:08.925Z,19.63
2019-04-20T08:09:46.536Z,19.33
2019-04-20T08:15:36.456Z,18.07
2019-04-20T08:18:01.183Z,18.63
2019-04-20T08:20:25.687Z,17.17
2019-04-20T08:23:09.710Z,17.33
2019-04-20T08:25:39.901Z,15.77
2019-04-20T08:28:16.678Z,15.73
2019-04-20T08:31:06.112Z,15.10
2019-04-20T08:33:55.470Z,15.20
2019-04-20T08:36:25.744Z,16.10
2019-04-20T08:39:16.599Z,15.90
2019-04-20T08:41:24.991Z,15.17
2019-04-20T08:44:18.716Z,15.10
2019-04-20T08:46:40.330Z,13.60
2019-04-20T08:49:19.410Z,13.60
2019-04-20T08:51:49.804Z,11.60
2019-04-20T08:54:16.515Z,13.60
2019-04-20T08:56:39.047Z,12.53
2019-04-20T08:59:06.624Z,13.20
2019-04-20T09:01:40.873Z,9.87
2019-04-20T09:04:18.771Z,10.50
2019-04-20T09:07:05.555Z,6.93
2019-04-20T09:09:56.495Z,9.13
2019-04-20T09:12:21.102Z,9.80
2019-04-20T09:14:41.835Z,9.25
2019-04-20T09:17:32.396Z,9.15
2019-04-20T09:27:48.808Z,9.60
2019-04-20T09:30:30.319Z,8.93
2019-04-20T09:33:20.747Z,7.85
2019-04-20T09:35:42.953Z,6.92
2019-04-20T09:38:18.061Z,7.58
2019-04-20T09:40:58.452Z,8.48
2019-04-20T09:43:26.203Z,8.73
2019-04-20T09:46:03.603Z,8.03
2019-04-20T09:48:42.863Z,7.53
2019-04-20T09:51:30.632Z,9.20
2019-04-20T09:53:55.011Z,9.25
2019-04-20T09:56:34.541Z,7.53
2019-04-20T09:59:16.824Z,6.62
2019-04-20T10:01:35.163Z,6.87
2019-04-20T10:04:03.481Z,6.50
2019-04-20T10:06:39.300Z,5.78
2019-04-20T10:09:13.720Z,6.47
2019-04-20T10:11:50.819Z,6.45
2019-04-20T10:14:24.730Z,6.62
2019-04-20T10:16:57.970Z,7.47
2019-04-20T10:19:34.048Z,6.25
2019-04-20T10:22:02.863Z,5.87
2019-04-20T10:24:35.294Z,5.97
2019-04-20T10:27:10.795Z,6.35
2019-04-20T10:29:46.188Z,5.67
2019-04-20T10:32:19.609Z,5.65
2019-04-20T10:34:50.648Z,5.50
2019-04-20T10:37:23.891Z,5.80
2019-04-20T10:40:00.518Z,5.47
2019-04-20T10:42:36.255Z,5.67
2019-04-20T10:45:10.883Z,5.67
2019-04-20T10:47:48.130Z,4.90
2019-04-20T10:50:20.913Z,5.35
2019-04-20T10:52:56.004Z,5.10
2019-04-20T10:55:31.334Z,5.55
2019-04-20T10:58:09.343Z,5.75
2019-04-20T11:00:46.755Z,5.50
2019-04-20T11:03:22.798Z,5.28
2019-04-20T11:05:56.462Z,5.53
2019-04-20T11:08:30.602Z,5.37
2019-04-20T11:11:12.935Z,5.47
2019-04-20T11:13:39.336Z,5.67
2019-04-20T11:16:14.759Z,5.28
2019-04-20T11:18:53.535Z,6.28
2019-04-20T11:21:26.392Z,5.65
2019-04-20T11:24:00.416Z,5.45
2019-04-20T11:26:37.072Z,6.35
2019-04-20T11:29:10.444Z,5.55
2019-04-20T11:31:50.824Z,6.83
2019-04-20T11:34:28.652Z,6.03
2019-04-20T11:37:01.267Z,5.35
2019-04-20T11:39:34.845Z,6.17
2019-04-20T11:42:09.977Z,5.50
2019-04-20T11:44:40.213Z,5.25
2019-04-20T11:47:16.818Z,5.78
2019-04-20T11:49:51.264Z,5.75
2019-04-20T11:52:28.210Z,5.40
2019-04-20T11:55:02.412Z,6.05
2019-04-20T11:57:37.671Z,4.90
2019-04-20T12:00:17.252Z,4.90
2019-04-20T12:03:15.887Z,4.75
2019-04-20T12:05:44.475Z,4.20
2019-04-20T12:08:13.842Z,4.50
2019-04-20T12:10:50.230Z,4.37
2019-04-20T12:13:20.560Z,4.30
2019-04-20T12:15:52.171Z,4.00
2019-04-20T12:18:25.467Z,3.85
2019-04-20T12:20:56.750Z,3.77
2019-04-20T12:23:29.024Z,3.50
2019-04-20T12:26:02.029Z,3.90
2019-04-20T12:28:35.861Z,3.80
2019-04-20T12:31:14.759Z,4.08
2019-04-20T12:33:44.336Z,4.15
2019-04-20T12:36:16.669Z,3.98
2019-04-20T12:38:52.903Z,3.40
2019-04-20T12:41:37.468Z,4.15
2019-04-20T12:44:01.795Z,3.83
2019-04-20T12:46:34.039Z,4.28
2019-04-20T12:49:11.682Z,3.50
2019-04-20T12:51:50.667Z,4.20
2019-04-20T12:54:22.689Z,4.10
2019-04-20T12:56:58.609Z,3.65
2019-04-20T12:59:32.009Z,4.35
2019-04-20T13:02:07.178Z,3.40
2019-04-20T13:04:42.070Z,3.45
2019-04-20T13:07:17.699Z,3.10
2019-04-20T13:09:54.902Z,3.20
2019-04-20T13:12:30.358Z,4.22
2019-04-20T13:15:26.541Z,8.53
2019-04-20T13:17:59.006Z,3.45
2019-04-20T13:20:30.046Z,3.45
2019-04-20T13:23:04.444Z,3.47
2019-04-20T13:25:41.204Z,3.05
2019-04-20T13:28:13.116Z,3.17
2019-04-20T13:30:45.967Z,3.02
2019-04-20T13:33:19.753Z,3.47
2019-04-20T13:35:52.241Z,3.45
2019-04-20T13:38:25.907Z,4.15
2019-04-20T13:40:59.825Z,3.80
2019-04-20T13:43:32.045Z,3.50
2019-04-20T13:46:04.957Z,3.72
2019-04-20T13:48:41.473Z,3.90
2019-04-20T13:51:16.738Z,3.67
2019-04-20T13:53:48.903Z,3.20
2019-04-20T13:56:20.154Z,3.40
2019-04-20T13:58:51.910Z,3.50
2019-04-20T14:01:39.881Z,3.72
2019-04-20T14:04:20.945Z,3.85
2019-04-20T14:06:53.343Z,3.52
2019-04-20T14:09:27.461Z,4.25
2019-04-20T14:12:14.086Z,3.70
2019-04-20T14:14:35.291Z,3.92
2019-04-20T14:17:07.552Z,3.60
2019-04-20T14:19:39.220Z,3.25
2019-04-20T14:22:20.859Z,3.65
2019-04-20T14:24:57.356Z,3.58
2019-04-20T14:27:28.972Z,4.05
2019-04-20T14:30:03.999Z,3.50
2019-04-20T14:32:36.809Z,3.47
2019-04-20T14:35:14.526Z,4.03
2019-04-20T14:37:45.973Z,4.12
2019-04-20T14:40:20.336Z,3.30
2019-04-20T14:42:54.684Z,3.80
2019-04-20T14:45:24.765Z,3.50
2019-04-20T14:48:01.676Z,3.37
2019-04-20T14:50:35.808Z,3.72
2019-04-20T14:53:07.617Z,3.72
2019-04-20T14:55:39.637Z,3.42
2019-04-20T15:01:39.155Z,4.30
2019-04-20T15:04:17.978Z,4.00
2019-04-20T15:06:48.680Z,4.53
2019-04-20T15:09:21.046Z,3.85
2019-04-20T15:11:56.904Z,4.15
2019-04-20T15:14:29.939Z,3.93
2019-04-20T15:17:02.530Z,3.77
2019-04-20T15:19:53.783Z,4.13
2019-04-20T15:22:31.886Z,3.53
2019-04-20T15:25:05.423Z,3.60
2019-04-20T15:27:42.966Z,3.80
2019-04-20T15:30:12.329Z,4.10
2019-04-20T15:32:44.922Z,3.50
2019-04-20T15:35:19.037Z,4.00
2019-04-20T15:37:51.071Z,4.23
2019-04-20T15:40:26.950Z,4.33
2019-04-20T15:43:09.559Z,3.93
2019-04-20T15:45:36.975Z,3.57
2019-04-20T15:48:07.937Z,3.50
2019-04-20T15:50:41.489Z,3.97
2019-04-20T15:53:17.469Z,3.40
2019-04-20T15:55:55.315Z,3.30
2019-04-20T15:58:28.628Z,3.90
2019-04-20T16:00:58.570Z,3.77
2019-04-20T16:03:32.999Z,3.40
2019-04-20T16:06:09.798Z,3.27
2019-04-20T16:08:42.319Z,3.07
2019-04-20T16:11:17.196Z,3.83
2019-04-20T16:13:53.581Z,3.50
2019-04-20T16:16:21.736Z,3.40
2019-04-20T16:18:52.904Z,3.50
2019-04-20T16:21:28.478Z,3.70
2019-04-20T16:24:01.341Z,4.70
2019-04-20T16:26:33.493Z,5.33
2019-04-20T16:29:06.768Z,3.67
2019-04-20T16:31:40.554Z,4.40
2019-04-20T16:34:11.763Z,3.97
2019-04-20T16:36:54.344Z,4.03
2019-04-20T16:39:22.666Z,3.67
2019-04-20T16:41:56.267Z,4.23
2019-04-20T16:44:29.217Z,2.90
2019-04-20T16:47:10.615Z,2.77
2019-04-20T16:52:16.835Z,2.67
2019-04-20T16:54:48.587Z,7.50
2019-04-20T16:57:21.505Z,5.30
2019-04-20T16:59:56.439Z,15.13
2019-04-20T17:02:26.529Z,4.20
2019-04-20T17:05:00.850Z,10.77
2019-04-20T17:07:35.264Z,3.47
2019-04-20T17:12:43.854Z,5.97
2019-04-20T17:15:16.611Z,6.97
2019-04-20T17:17:51.383Z,4.97
2019-04-20T17:20:21.996Z,5.00
2019-04-20T17:22:56.239Z,6.13
2019-04-20T17:25:28.350Z,7.73
2019-04-20T17:28:00.299Z,5.70
2019-04-20T17:30:42.103Z,4.47
2019-04-20T17:35:54.161Z,3.87
2019-04-20T17:38:20.632Z,3.93
2019-04-20T17:41:11.763Z,4.87
2019-04-20T17:43:38.313Z,5.53
2019-04-20T17:46:08.133Z,4.93
2019-04-20T17:48:43.006Z,4.63
2019-04-20T17:51:28.688Z,5.43
2019-04-20T17:53:55.952Z,4.10
2019-04-20T17:56:24.478Z,4.27
2019-04-20T17:58:58.547Z,3.83
2019-04-20T18:01:48.935Z,4.40
2019-04-20T18:04:41.817Z,8.60
2019-04-20T18:06:54.991Z,14.57
2019-04-20T18:09:40.157Z,21.67
2019-04-20T18:11:52.759Z,14.73
2019-04-20T18:14:37.384Z,39.63
2019-04-20T18:17:28.246Z,33.70
2019-04-20T18:19:46.913Z,23.07
2019-04-20T18:22:19.793Z,15.33
2019-04-20T18:25:12.185Z,13.80
2019-04-20T18:27:44.008Z,11.03
2019-04-20T18:30:10.758Z,6.83
2019-04-20T18:32:37.784Z,6.00
2019-04-20T18:35:34.785Z,5.57
2019-04-20T18:38:09.747Z,4.73
2019-04-20T18:40:49.303Z,4.37
2019-04-20T18:43:18.784Z,4.00
2019-04-20T18:46:08.214Z,4.53
2019-04-20T18:50:54.838Z,4.37
2019-04-20T18:53:34.468Z,4.87
2019-04-20T18:56:01.195Z,4.80
2019-04-20T18:58:33.224Z,4.30
2019-04-20T19:01:05.445Z,4.03
2019-04-20T19:03:41.935Z,4.33
2019-04-20T19:06:11.196Z,4.40
2019-04-20T19:08:49.906Z,4.30
2019-04-20T19:11:23.192Z,4.97
2019-04-20T19:14:18.218Z,4.50
2019-04-20T19:16:58.074Z,4.57
2019-04-20T19:19:32.124Z,4.67
2019-04-20T19:21:56.225Z,4.90
2019-04-20T19:24:32.800Z,4.60
2019-04-20T19:27:10.285Z,5.83
2019-04-20T19:29:46.143Z,5.50
2019-04-20T19:32:34.176Z,6.17
2019-04-20T19:35:01.273Z,6.30
2019-04-20T19:37:28.510Z,6.13
2019-04-20T19:40:08.170Z,7.03
2019-04-20T19:42:42.318Z,5.90
2019-04-20T19:47:55.727Z,7.70
2019-04-20T19:50:41.349Z,7.13
2019-04-20T19:53:23.358Z,7.70
2019-04-20T19:55:47.822Z,7.00
2019-04-20T19:58:20.197Z,7.80
2019-04-20T20:00:52.177Z,7.60
2019-04-20T20:03:27.938Z,7.40
2019-04-20T20:06:01.515Z,7.03
2019-04-20T20:08:36.470Z,7.10
2019-04-20T20:11:09.746Z,7.30
2019-04-20T20:16:25.803Z,7.90
2019-04-20T20:18:59.913Z,8.63
2019-04-20T20:21:35.258Z,7.03
2019-04-20T20:23:56.405Z,6.53
2019-04-20T20:26:33.545Z,6.83
2019-04-20T20:29:09.551Z,7.97
2019-04-20T20:31:51.338Z,7.90
2019-04-20T20:34:15.716Z,7.03
2019-04-20T20:36:47.159Z,5.87
2019-04-20T20:39:22.506Z,6.53
2019-04-20T20:41:58.063Z,6.83
2019-04-20T20:47:12.881Z,4.93
2019-04-20T20:50:03.593Z,8.37
2019-04-20T20:52:29.141Z,13.00
2019-04-20T20:54:57.536Z,13.40
2019-04-20T20:57:22.413Z,12.77
2019-04-20T20:59:57.397Z,12.17
2019-04-20T21:02:38.995Z,12.33
2019-04-20T21:04:57.706Z,14.07
2019-04-20T21:07:29.283Z,20.47
2019-04-20T21:10:06.162Z,21.83
2019-04-20T21:12:46.493Z,26.37
2019-04-20T21:15:20.331Z,27.53
2019-04-20T21:18:10.750Z,27.30
2019-04-20T21:20:44.880Z,32.50
2019-04-20T21:23:13.569Z,38.60
2019-04-20T21:25:44.184Z,37.60
2019-04-20T21:28:11.380Z,39.03
2019-04-20T21:30:45.143Z,37.43
2019-04-20T21:33:20.667Z,45.37
2019-04-20T21:35:52.180Z,47.40
2019-04-20T21:38:24.953Z,53.77
2019-04-20T21:41:03.471Z,48.77
2019-04-20T21:46:07.215Z,26.10
2019-04-20T21:48:51.797Z,29.20
2019-04-20T21:51:25.784Z,27.47
2019-04-20T21:53:44.284Z,26.07
2019-04-20T21:56:16.087Z,28.20
2019-04-20T21:58:54.487Z,30.90
2019-04-20T22:01:27.279Z,28.00
2019-04-20T22:03:56.212Z,24.13
2019-04-20T22:06:28.525Z,22.83
2019-04-20T22:09:05.643Z,27.53
2019-04-20T22:11:37.870Z,29.30
2019-04-20T22:14:17.297Z,34.87
2019-04-20T22:16:49.692Z,35.83
2019-04-20T22:19:34.200Z,33.77
2019-04-20T22:22:05.491Z,43.03
2019-04-20T22:24:46.538Z,44.43
2019-04-20T22:27:13.085Z,49.87
2019-04-20T22:29:38.467Z,56.03
2019-04-20T22:32:13.747Z,53.80
2019-04-20T22:34:47.579Z,42.87
2019-04-20T22:37:22.018Z,44.80
2019-04-20T22:39:56.286Z,43.23
2019-04-20T22:42:31.397Z,45.40
2019-04-20T22:45:06.464Z,44.43
2019-04-20T22:47:34.394Z,46.43
2019-04-20T22:50:30.951Z,44.33
2019-04-20T22:52:50.405Z,41.93
2019-04-20T22:55:39.019Z,43.43
2019-04-20T22:57:57.180Z,41.40
2019-04-20T23:00:31.270Z,32.80
2019-04-20T23:02:54.605Z,30.90
2019-04-20T23:05:24.757Z,31.43
2019-04-20T23:10:34.913Z,24.00
2019-04-20T23:13:03.234Z,23.73
2019-04-20T23:15:36.371Z,21.83
2019-04-20T23:18:06.877Z,18.20
2019-04-20T23:21:00.372Z,21.80
2019-04-20T23:23:28.992Z,24.50
2019-04-20T23:26:01.124Z,27.37
2019-04-20T23:28:33.347Z,25.17
2019-04-20T23:31:11.677Z,26.53
2019-04-20T23:33:38.082Z,28.87
2019-04-20T23:36:08.510Z,26.97
2019-04-20T23:38:44.251Z,27.33
2019-04-20T23:41:13.572Z,27.77
2019-04-20T23:44:04.180Z,27.07
2019-04-20T23:46:33.250Z,29.43
2019-04-20T23:49:26.059Z,32.20
2019-04-20T23:52:21.691Z,28.70
2019-04-20T23:54:33.206Z,26.57
2019-04-20T23:57:03.820Z,20.60
2019-04-20T23:59:39.598Z,23.33
